createdAt,value
2019-05-17T00:02:12.515Z,56.79
2019-05-17T00:04:46.943Z,58.17
2019-05-17T00:07:19.700Z,59.48
2019-05-17T00:09:53.580Z,60.26
2019-05-17T00:12:27.102Z,61.75
2019-05-17T00:14:59.930Z,62.94
2019-05-17T00:17:32.740Z,64.34
2019-05-17T00:20:08.381Z,60.11
2019-05-17T00:22:41.060Z,56.08
2019-05-17T00:25:16.509Z,54.02
2019-05-17T00:27:48.687Z,54.98
2019-05-17T00:30:21.615Z,56.31
2019-05-17T00:32:56.797Z,57.73
2019-05-17T00:35:28.905Z,59.24
2019-05-17T00:38:01.830Z,60.52
2019-05-17T00:40:36.705Z,61.41
2019-05-17T00:43:09.245Z,62.38
2019-05-17T00:45:42.140Z,63.71
2019-05-17T00:48:16.949Z,59.51
2019-05-17T00:50:53.305Z,56.51
2019-05-17T00:53:23.645Z,57.54
2019-05-17T00:55:57.335Z,58.73
2019-05-17T00:58:31.020Z,59.98
2019-05-17T01:01:03.799Z,61.32
2019-05-17T01:03:36.425Z,62.23
2019-05-17T01:06:09.611Z,62.82
2019-05-17T01:08:42.256Z,64.48
2019-05-17T01:11:16.516Z,60.51
2019-05-17T01:13:49.080Z,56.76
2019-05-17T01:16:21.865Z,54.78
2019-05-17T01:18:54.520Z,55.60
2019-05-17T01:21:27.287Z,56.89
2019-05-17T01:23:59.950Z,58.06
2019-05-17T01:26:32.686Z,59.48
2019-05-17T01:29:06.746Z,60.29
2019-05-17T01:31:39.441Z,61.31
2019-05-17T01:34:12.062Z,62.78
2019-05-17T01:36:46.484Z,64.03
2019-05-17T01:39:21.485Z,60.33
2019-05-17T01:41:53.640Z,56.02
2019-05-17T01:44:27.220Z,54.31
2019-05-17T01:46:59.896Z,55.25
2019-05-17T01:49:32.527Z,56.73
2019-05-17T01:52:07.313Z,58.12
2019-05-17T01:54:39.635Z,59.14
2019-05-17T01:57:12.475Z,60.18
2019-05-17T01:59:46.713Z,61.29
2019-05-17T02:02:27.180Z,62.74
2019-05-17T02:04:59.972Z,64.01
2019-05-17T02:07:32.630Z,59.96
2019-05-17T02:10:07.612Z,55.88
2019-05-17T02:12:40.470Z,54.00
2019-05-17T02:15:16.284Z,55.47
2019-05-17T02:17:48.430Z,56.81
2019-05-17T02:20:22.275Z,58.00
2019-05-17T02:22:56.466Z,59.63
2019-05-17T02:25:29.308Z,60.84
2019-05-17T02:28:02.460Z,61.93
2019-05-17T02:30:35.366Z,63.08
2019-05-17T02:33:08.321Z,64.56
2019-05-17T02:35:42.947Z,60.71
2019-05-17T02:38:15.866Z,56.71
2019-05-17T02:40:48.491Z,54.39
2019-05-17T02:43:23.581Z,55.42
2019-05-17T02:45:56.867Z,56.89
2019-05-17T02:48:29.572Z,58.21
2019-05-17T02:51:03.488Z,59.77
2019-05-17T02:53:36.647Z,61.06
2019-05-17T02:56:13.475Z,62.09
2019-05-17T02:58:44.460Z,63.30
2019-05-17T03:01:17.307Z,64.97
2019-05-17T03:03:52.611Z,61.88
2019-05-17T03:06:24.243Z,58.06
2019-05-17T03:08:57.287Z,55.47
2019-05-17T03:11:33.019Z,56.36
2019-05-17T03:14:04.670Z,57.91
2019-05-17T03:16:37.673Z,59.39
2019-05-17T03:19:13.121Z,60.80
2019-05-17T03:21:44.531Z,62.08
2019-05-17T03:24:17.381Z,63.49
2019-05-17T03:26:52.623Z,64.73
2019-05-17T03:29:24.737Z,60.92
2019-05-17T03:32:00.589Z,56.99
2019-05-17T03:34:36.816Z,55.00
2019-05-17T03:37:07.495Z,56.15
2019-05-17T03:39:42.746Z,57.69
2019-05-17T03:42:15.897Z,59.10
2019-05-17T03:44:48.621Z,60.50
2019-05-17T03:47:22.669Z,61.80
2019-05-17T03:49:55.806Z,63.04
2019-05-17T03:52:28.286Z,64.11
2019-05-17T03:55:03.899Z,60.22
2019-05-17T03:57:36.378Z,56.43
2019-05-17T04:00:13.330Z,54.74
2019-05-17T04:02:45.505Z,56.00
2019-05-17T04:05:18.382Z,57.35
2019-05-17T04:07:53.735Z,58.94
2019-05-17T04:10:26.460Z,60.37
2019-05-17T04:12:59.201Z,61.60
2019-05-17T04:15:32.834Z,62.85
2019-05-17T04:18:06.013Z,63.62
2019-05-17T04:20:39.063Z,59.85
2019-05-17T04:23:12.754Z,56.34
2019-05-17T04:25:46.980Z,54.60
2019-05-17T04:28:22.770Z,55.93
2019-05-17T04:30:54.247Z,57.10
2019-05-17T04:33:26.756Z,58.68
2019-05-17T04:36:02.299Z,59.94
2019-05-17T04:38:33.598Z,61.24
2019-05-17T04:41:06.637Z,62.58
2019-05-17T04:43:42.255Z,63.28
2019-05-17T04:46:13.572Z,59.69
2019-05-17T04:48:46.211Z,55.96
2019-05-17T04:51:18.897Z,54.71
2019-05-17T04:53:53.024Z,55.68
2019-05-17T04:56:25.862Z,56.85
2019-05-17T04:58:58.671Z,58.28
2019-05-17T05:01:32.978Z,59.26
2019-05-17T05:04:05.701Z,60.57
2019-05-17T05:06:38.545Z,61.42
2019-05-17T05:09:12.733Z,61.19
2019-05-17T05:11:57.103Z,61.97
2019-05-17T05:14:19.846Z,63.69
2019-05-17T05:16:52.894Z,64.27
2019-05-17T05:19:25.685Z,60.27
2019-05-17T05:21:58.410Z,55.68
2019-05-17T05:24:31.590Z,54.01
2019-05-17T05:27:04.241Z,54.99
2019-05-17T05:29:36.956Z,54.61
2019-05-17T05:32:11.749Z,54.65
2019-05-17T05:34:46.435Z,54.75
2019-05-17T05:37:20.274Z,55.38
2019-05-17T05:39:54.595Z,55.05
2019-05-17T05:42:27.500Z,55.30
2019-05-17T05:45:00.218Z,56.89
2019-05-17T05:47:33.125Z,54.54
2019-05-17T05:50:08.710Z,54.18
2019-05-17T05:52:42.398Z,56.15
2019-05-17T05:55:15.420Z,54.73
2019-05-17T05:57:48.146Z,56.81
2019-05-17T06:00:22.119Z,56.03
2019-05-17T06:02:55.206Z,53.56
2019-05-17T06:05:28.316Z,55.35
2019-05-17T06:08:02.928Z,55.96
2019-05-17T06:10:39.448Z,54.73
2019-05-17T06:13:12.991Z,54.96
2019-05-17T06:15:46.309Z,56.11
2019-05-17T06:18:19.400Z,54.23
2019-05-17T06:20:52.492Z,53.80
2019-05-17T06:23:25.360Z,53.84
2019-05-17T06:25:57.889Z,53.93
2019-05-17T06:28:31.849Z,54.00
2019-05-17T06:31:04.706Z,55.20
2019-05-17T06:33:37.110Z,56.22
2019-05-17T06:36:09.795Z,57.80
2019-05-17T06:38:42.580Z,57.39
2019-05-17T06:41:15.450Z,58.46
2019-05-17T06:43:48.222Z,59.07
2019-05-17T06:46:22.005Z,60.28
2019-05-17T06:48:54.731Z,59.77
2019-05-17T06:51:27.285Z,59.68
2019-05-17T06:54:01.840Z,60.74
2019-05-17T06:56:34.879Z,59.87
2019-05-17T06:59:08.110Z,60.56
2019-05-17T07:01:41.481Z,61.46
2019-05-17T07:04:15.000Z,62.37
2019-05-17T07:06:49.575Z,60.67
2019-05-17T07:09:22.241Z,55.47
2019-05-17T07:11:54.930Z,53.63
2019-05-17T07:14:29.463Z,53.68
2019-05-17T07:17:02.301Z,54.31
2019-05-17T07:19:35.265Z,54.94
2019-05-17T07:22:09.508Z,54.36
2019-05-17T07:24:42.560Z,56.01
2019-05-17T07:27:15.305Z,56.97
2019-05-17T07:29:49.725Z,56.36
2019-05-17T07:32:22.745Z,56.29
2019-05-17T07:34:55.435Z,57.20
2019-05-17T07:37:30.314Z,58.37
2019-05-17T07:40:05.270Z,59.40
2019-05-17T07:42:39.578Z,61.21
2019-05-17T07:45:13.438Z,59.80
2019-05-17T07:47:46.730Z,61.60
2019-05-17T07:50:20.461Z,61.56
2019-05-17T07:52:52.800Z,62.30
2019-05-17T07:55:25.282Z,63.00
2019-05-17T07:58:00.102Z,62.76
2019-05-17T08:00:32.060Z,57.04
2019-05-17T08:03:04.562Z,53.52
2019-05-17T08:05:36.866Z,53.52
2019-05-17T08:08:09.854Z,53.73
2019-05-17T08:10:42.561Z,54.78
2019-05-17T08:13:25.667Z,54.97
2019-05-17T08:15:50.188Z,55.92
2019-05-17T08:18:22.743Z,55.94
2019-05-17T08:20:55.220Z,56.98
2019-05-17T08:23:30.206Z,57.31
2019-05-17T08:26:01.980Z,58.68
2019-05-17T08:28:34.520Z,58.88
2019-05-17T08:31:09.742Z,58.08
2019-05-17T08:33:40.941Z,59.14
2019-05-17T08:36:13.402Z,59.97
2019-05-17T08:38:45.720Z,58.97
2019-05-17T08:41:20.630Z,59.24
2019-05-17T08:43:52.409Z,59.94
2019-05-17T08:46:25.080Z,60.42
2019-05-17T08:49:00.280Z,60.69
2019-05-17T08:51:32.481Z,60.17
2019-05-17T08:54:05.062Z,60.26
2019-05-17T08:56:40.011Z,60.28
2019-05-17T08:59:11.461Z,61.05
2019-05-17T09:01:43.800Z,60.91
2019-05-17T09:04:16.281Z,61.69
2019-05-17T09:06:50.448Z,63.07
2019-05-17T09:09:22.522Z,63.75
2019-05-17T09:11:55.060Z,56.68
2019-05-17T09:14:29.431Z,54.90
2019-05-17T09:17:01.944Z,53.59
2019-05-17T09:19:34.420Z,55.08
2019-05-17T09:22:10.334Z,56.76
2019-05-17T09:24:41.961Z,55.73
2019-05-17T09:27:14.480Z,55.75
2019-05-17T09:29:46.941Z,55.68
2019-05-17T09:32:20.218Z,55.41
2019-05-17T09:34:52.700Z,56.11
2019-05-17T09:37:25.062Z,57.78
2019-05-17T09:39:59.673Z,57.54
2019-05-17T09:42:32.003Z,57.39
2019-05-17T09:45:06.240Z,56.94
2019-05-17T09:47:39.713Z,56.61
2019-05-17T09:50:12.900Z,58.30
2019-05-17T09:52:45.181Z,57.20
2019-05-17T09:55:19.624Z,56.52
2019-05-17T09:57:52.021Z,57.75
2019-05-17T10:00:25.882Z,58.03
2019-05-17T10:03:00.094Z,56.71
2019-05-17T10:05:32.661Z,55.88
2019-05-17T10:08:05.340Z,58.61
2019-05-17T10:10:39.986Z,55.52
2019-05-17T10:13:13.061Z,55.69
2019-05-17T10:15:45.500Z,54.95
2019-05-17T10:18:19.997Z,57.28
2019-05-17T10:20:52.042Z,56.27
2019-05-17T10:23:24.500Z,57.65
2019-05-17T10:25:59.384Z,57.21
2019-05-17T10:28:31.101Z,57.14
2019-05-17T10:31:03.687Z,57.17
2019-05-17T10:33:36.260Z,57.01
2019-05-17T10:36:08.820Z,56.46
2019-05-17T10:38:41.501Z,56.49
2019-05-17T10:41:14.120Z,54.93
2019-05-17T10:43:46.660Z,56.08
2019-05-17T10:46:20.542Z,56.78
2019-05-17T10:48:53.185Z,58.97
2019-05-17T10:51:25.840Z,58.34
2019-05-17T10:53:59.962Z,56.74
2019-05-17T10:56:32.681Z,56.12
2019-05-17T10:59:06.383Z,56.51
2019-05-17T11:01:38.840Z,55.79
2019-05-17T11:04:11.582Z,56.38
2019-05-17T11:06:43.960Z,55.52
2019-05-17T11:09:16.545Z,54.89
2019-05-17T11:11:48.920Z,55.48
2019-05-17T11:14:21.401Z,56.89
2019-05-17T11:16:53.980Z,56.06
2019-05-17T11:19:26.520Z,57.92
2019-05-17T11:21:59.021Z,55.23
2019-05-17T11:24:31.381Z,57.88
2019-05-17T11:27:03.941Z,55.65
2019-05-17T11:29:36.620Z,57.53
2019-05-17T11:32:09.126Z,54.22
2019-05-17T11:34:42.702Z,54.26
2019-05-17T11:37:15.000Z,53.84
2019-05-17T11:39:47.380Z,56.20
2019-05-17T11:42:19.790Z,53.22
2019-05-17T11:44:52.400Z,53.71
2019-05-17T11:47:24.900Z,54.67
2019-05-17T11:49:57.441Z,55.27
2019-05-17T11:52:30.230Z,53.08
2019-05-17T11:55:02.824Z,53.96
2019-05-17T11:57:35.502Z,53.83
2019-05-17T12:00:12.220Z,54.21
2019-05-17T12:02:44.641Z,54.24
2019-05-17T12:05:17.221Z,55.00
2019-05-17T12:07:49.782Z,54.03
2019-05-17T12:10:22.789Z,54.47
2019-05-17T12:12:55.361Z,53.18
2019-05-17T12:15:43.713Z,52.89
2019-05-17T12:18:02.201Z,53.27
2019-05-17T12:20:36.162Z,54.05
2019-05-17T12:23:08.960Z,54.04
2019-05-17T12:25:41.340Z,54.29
2019-05-17T12:28:14.101Z,55.60
2019-05-17T12:30:46.601Z,55.24
2019-05-17T12:33:19.100Z,56.01
2019-05-17T12:35:51.721Z,55.94
2019-05-17T12:38:24.200Z,57.78
2019-05-17T12:40:56.881Z,59.96
2019-05-17T12:43:29.720Z,60.31
2019-05-17T12:46:02.221Z,61.14
2019-05-17T12:48:34.802Z,61.04
2019-05-17T12:51:07.444Z,63.29
2019-05-17T12:53:39.921Z,60.76
2019-05-17T12:56:14.661Z,56.54
2019-05-17T12:58:47.060Z,54.23
2019-05-17T13:01:19.420Z,54.36
2019-05-17T13:03:52.102Z,54.32
2019-05-17T13:06:24.461Z,53.60
2019-05-17T13:08:56.961Z,55.78
2019-05-17T13:11:29.487Z,57.48
2019-05-17T13:14:02.223Z,56.80
2019-05-17T13:16:34.761Z,59.80
2019-05-17T13:19:07.161Z,57.73
2019-05-17T13:21:39.630Z,59.26
2019-05-17T13:24:12.221Z,57.85
2019-05-17T13:26:44.911Z,57.53
2019-05-17T13:29:17.860Z,57.38
2019-05-17T13:31:50.366Z,60.11
2019-05-17T13:34:23.262Z,59.68
2019-05-17T13:36:56.270Z,60.40
2019-05-17T13:39:29.018Z,60.48
2019-05-17T13:42:01.576Z,61.74
2019-05-17T13:44:34.230Z,60.57
2019-05-17T13:47:06.853Z,62.81
2019-05-17T13:49:39.678Z,62.06
2019-05-17T13:52:12.525Z,55.52
2019-05-17T13:54:45.154Z,52.89
2019-05-17T13:57:18.093Z,52.35
2019-05-17T13:59:51.015Z,51.55
2019-05-17T14:02:23.759Z,51.54
2019-05-17T14:04:56.646Z,52.78
2019-05-17T14:07:29.518Z,52.54
2019-05-17T14:10:02.602Z,52.25
2019-05-17T14:12:35.220Z,52.64
2019-05-17T14:15:12.186Z,54.01
2019-05-17T14:17:44.745Z,53.82
2019-05-17T14:20:17.646Z,53.87
2019-05-17T14:22:50.630Z,54.60
2019-05-17T14:25:23.395Z,54.87
2019-05-17T14:27:55.981Z,54.89
2019-05-17T14:30:28.839Z,55.10
2019-05-17T14:33:01.448Z,54.75
2019-05-17T14:35:34.416Z,54.97
2019-05-17T14:38:06.991Z,55.75
2019-05-17T14:41:05.110Z,56.06
2019-05-17T14:43:14.377Z,55.18
2019-05-17T14:45:47.183Z,56.01
2019-05-17T14:48:19.746Z,56.12
2019-05-17T14:50:53.595Z,56.58
2019-05-17T14:53:26.460Z,55.75
2019-05-17T14:55:59.786Z,56.32
2019-05-17T14:58:32.503Z,56.91
2019-05-17T15:01:06.632Z,55.79
2019-05-17T15:03:39.385Z,56.82
2019-05-17T15:06:12.621Z,56.55
2019-05-17T15:08:45.147Z,56.89
2019-05-17T15:11:17.881Z,57.18
2019-05-17T15:13:50.385Z,57.25
2019-05-17T15:16:23.139Z,57.77
2019-05-17T15:18:55.856Z,58.41
2019-05-17T15:21:28.656Z,57.32
2019-05-17T15:24:01.246Z,57.78
2019-05-17T15:26:35.804Z,58.25
2019-05-17T15:29:09.842Z,58.53
2019-05-17T15:31:42.456Z,58.88
2019-05-17T15:34:15.471Z,58.77
2019-05-17T15:36:48.215Z,59.88
2019-05-17T15:39:20.965Z,59.09
2019-05-17T15:41:53.801Z,58.46
2019-05-17T15:44:27.083Z,59.09
2019-05-17T15:47:00.071Z,58.84
2019-05-17T15:49:32.753Z,58.55
2019-05-17T15:52:05.905Z,58.45
2019-05-17T15:54:38.630Z,58.47
2019-05-17T15:57:11.206Z,58.88
2019-05-17T15:59:43.795Z,59.07
2019-05-17T16:02:16.333Z,58.82
2019-05-17T16:04:50.287Z,59.41
2019-05-17T16:07:23.151Z,58.73
2019-05-17T16:09:55.708Z,58.69
2019-05-17T16:12:28.327Z,58.93
2019-05-17T16:15:00.873Z,58.60
2019-05-17T16:17:33.711Z,58.76
2019-05-17T16:20:08.035Z,59.35
2019-05-17T16:22:40.755Z,58.96
2019-05-17T16:25:13.969Z,59.14
2019-05-17T16:27:46.714Z,59.28
2019-05-17T16:30:19.601Z,59.26
2019-05-17T16:32:52.112Z,60.00
2019-05-17T16:35:25.056Z,60.28
2019-05-17T16:37:57.895Z,59.72
2019-05-17T16:40:30.761Z,60.23
2019-05-17T16:43:17.092Z,59.63
2019-05-17T16:45:37.781Z,59.54
2019-05-17T16:48:10.845Z,59.77
2019-05-17T16:50:43.516Z,60.19
2019-05-17T16:53:16.730Z,60.79
2019-05-17T16:55:49.533Z,60.70
2019-05-17T16:58:22.478Z,60.71
2019-05-17T17:00:55.551Z,60.64
2019-05-17T17:03:43.269Z,60.49
2019-05-17T17:06:02.985Z,60.66
2019-05-17T17:08:36.772Z,60.73
2019-05-17T17:11:09.820Z,60.62
2019-05-17T17:13:42.735Z,60.70
2019-05-17T17:16:15.816Z,60.93
2019-05-17T17:18:48.510Z,61.12
2019-05-17T17:21:21.601Z,61.56
2019-05-17T17:23:54.693Z,62.18
2019-05-17T17:26:27.686Z,62.12
2019-05-17T17:29:00.480Z,62.61
2019-05-17T17:31:33.395Z,61.60
2019-05-17T17:34:06.222Z,57.26
2019-05-17T17:36:38.768Z,54.15
2019-05-17T17:39:11.611Z,52.60
2019-05-17T17:41:44.331Z,52.43
2019-05-17T17:44:17.001Z,52.98
2019-05-17T17:46:49.761Z,53.98
2019-05-17T17:49:22.626Z,54.57
2019-05-17T17:51:55.210Z,55.26
2019-05-17T17:54:27.976Z,55.70
2019-05-17T17:57:00.751Z,56.66
2019-05-17T17:59:33.531Z,57.11
2019-05-17T18:02:06.753Z,58.11
2019-05-17T18:04:39.736Z,59.81
2019-05-17T18:07:12.921Z,59.86
2019-05-17T18:09:45.876Z,60.69
2019-05-17T18:12:18.824Z,61.80
2019-05-17T18:14:51.370Z,62.48
2019-05-17T18:17:24.316Z,63.32
2019-05-17T18:19:57.366Z,58.42
2019-05-17T18:22:30.091Z,55.06
2019-05-17T18:25:03.211Z,53.25
2019-05-17T18:27:37.071Z,53.51
2019-05-17T18:30:10.277Z,55.45
2019-05-17T18:32:42.761Z,56.42
2019-05-17T18:35:15.977Z,57.30
2019-05-17T18:37:48.866Z,58.91
2019-05-17T18:40:21.672Z,60.06
2019-05-17T18:42:54.415Z,61.10
2019-05-17T18:45:27.402Z,61.82
2019-05-17T18:48:00.500Z,62.58
2019-05-17T18:50:33.866Z,63.30
2019-05-17T18:53:13.098Z,60.08
2019-05-17T18:55:41.081Z,56.77
2019-05-17T18:58:13.875Z,54.99
2019-05-17T19:00:47.303Z,55.45
2019-05-17T19:03:20.186Z,56.36
2019-05-17T19:05:53.315Z,57.32
2019-05-17T19:08:26.086Z,58.60
2019-05-17T19:10:59.531Z,59.53
2019-05-17T19:13:32.261Z,60.70
2019-05-17T19:16:05.013Z,61.50
2019-05-17T19:18:37.956Z,62.18
2019-05-17T19:21:10.866Z,63.40
2019-05-17T19:23:43.617Z,64.36
2019-05-17T19:26:16.216Z,61.10
2019-05-17T19:28:49.166Z,57.27
2019-05-17T19:31:21.976Z,55.43
2019-05-17T19:33:54.475Z,56.29
2019-05-17T19:36:27.761Z,57.43
2019-05-17T19:39:00.812Z,58.73
2019-05-17T19:41:35.466Z,59.82
2019-05-17T19:44:08.077Z,60.96
2019-05-17T19:46:40.767Z,61.98
2019-05-17T19:49:13.761Z,62.78
2019-05-17T19:51:46.791Z,63.76
2019-05-17T19:54:19.635Z,60.25
2019-05-17T19:56:52.367Z,56.84
2019-05-17T19:59:25.416Z,54.94
2019-05-17T20:01:58.601Z,55.93
2019-05-17T20:04:31.295Z,57.22
2019-05-17T20:07:04.195Z,58.44
2019-05-17T20:09:37.089Z,59.53
2019-05-17T20:12:09.771Z,60.67
2019-05-17T20:14:42.496Z,61.68
2019-05-17T20:17:15.831Z,62.67
2019-05-17T20:19:49.006Z,64.13
2019-05-17T20:22:21.787Z,61.22
2019-05-17T20:24:54.576Z,57.46
2019-05-17T20:27:27.241Z,55.39
2019-05-17T20:30:00.755Z,55.99
2019-05-17T20:32:33.431Z,57.16
2019-05-17T20:35:07.316Z,58.45
2019-05-17T20:37:40.107Z,59.84
2019-05-17T20:40:12.991Z,61.11
2019-05-17T20:42:45.637Z,62.29
2019-05-17T20:45:32.187Z,63.71
2019-05-17T20:47:53.516Z,60.26
2019-05-17T20:50:26.441Z,56.51
2019-05-17T20:52:59.236Z,54.66
2019-05-17T20:55:31.739Z,55.57
2019-05-17T20:58:04.571Z,56.87
2019-05-17T21:00:37.316Z,58.07
2019-05-17T21:03:13.739Z,59.62
2019-05-17T21:05:44.792Z,60.79
2019-05-17T21:08:17.590Z,62.22
2019-05-17T21:10:50.584Z,63.67
2019-05-17T21:13:23.456Z,60.15
2019-05-17T21:15:56.067Z,56.84
2019-05-17T21:18:29.026Z,54.62
2019-05-17T21:21:01.942Z,55.59
2019-05-17T21:23:34.935Z,56.80
2019-05-17T21:26:08.115Z,58.30
2019-05-17T21:28:40.825Z,59.78
2019-05-17T21:31:13.465Z,61.00
2019-05-17T21:33:46.221Z,61.90
2019-05-17T21:36:18.911Z,63.14
2019-05-17T21:38:51.873Z,64.91
2019-05-17T21:41:24.526Z,61.31
2019-05-17T21:43:58.500Z,57.14
2019-05-17T21:46:31.070Z,54.97
2019-05-17T21:49:03.826Z,55.96
2019-05-17T21:51:36.440Z,57.20
2019-05-17T21:54:09.266Z,58.58
2019-05-17T21:56:41.936Z,59.79
2019-05-17T21:59:14.831Z,61.03
2019-05-17T22:01:48.650Z,62.32
2019-05-17T22:04:21.327Z,63.61
2019-05-17T22:06:54.122Z,59.34
2019-05-17T22:09:27.066Z,56.65
2019-05-17T22:12:01.641Z,57.54
2019-05-17T22:14:34.206Z,59.02
2019-05-17T22:17:07.001Z,60.14
2019-05-17T22:19:39.689Z,61.56
2019-05-17T22:22:12.560Z,62.82
2019-05-17T22:24:45.106Z,64.23
2019-05-17T22:27:17.740Z,60.12
2019-05-17T22:29:50.511Z,56.10
2019-05-17T22:32:23.260Z,54.33
2019-05-17T22:34:55.856Z,55.48
2019-05-17T22:37:28.430Z,57.00
2019-05-17T22:40:01.102Z,58.34
2019-05-17T22:42:33.866Z,59.48
2019-05-17T22:45:09.900Z,60.94
2019-05-17T22:47:42.411Z,61.73
2019-05-17T22:50:15.470Z,62.74
2019-05-17T22:52:48.600Z,64.64
2019-05-17T22:55:22.415Z,60.61
2019-05-17T22:57:54.790Z,57.08
2019-05-17T23:00:27.592Z,54.97
2019-05-17T23:03:00.531Z,55.91
2019-05-17T23:05:33.111Z,57.19
2019-05-17T23:08:06.920Z,58.58
2019-05-17T23:10:39.455Z,59.82
2019-05-17T23:13:13.296Z,60.99
2019-05-17T23:16:02.191Z,62.05
2019-05-17T23:18:35.946Z,62.60
2019-05-17T23:21:08.830Z,65.49
2019-05-17T23:23:41.310Z,62.92
2019-05-17T23:26:13.853Z,59.74
2019-05-17T23:28:46.582Z,56.91
2019-05-17T23:31:19.475Z,57.48
2019-05-17T23:33:52.130Z,58.62
2019-05-17T23:36:24.825Z,59.65
2019-05-17T23:38:57.570Z,60.91
2019-05-17T23:41:30.136Z,61.77
2019-05-17T23:44:02.772Z,63.18
2019-05-17T23:46:37.160Z,65.41
2019-05-17T23:49:09.757Z,62.38
2019-05-17T23:51:42.411Z,58.94
2019-05-17T23:54:15.045Z,56.64
2019-05-17T23:56:47.835Z,57.51
2019-05-17T23:59:20.390Z,58.68
